Nizwa, Oman
Current Conditions -  °F | °C
As of 1:50 PM on Saturday 22 Nov 2014 (Local Time) from OOMS Reporting Station
Scattered Clouds Scattered Clouds  
Wind Chill: 82°   Ceiling: Unl
Heat Index: 83°   Visibility: 6mi
Dew Point: 63°   Wind: 10mph
Humidity: 51%   Direction: 340°NNW
Pressure: 29.94"   Gusts: NA
Location:  22.92°N, 57.53°E
Report Text: OOMS 220950Z 34009KT 9999 FEW025 SCT200 28/17 Q1014 NOSIG
Loading
Personal Weather Stations






























Interactive Weather Map New forecast layout! Learn more

10-Day Weather Forecast

Advertisements
Track Severe Weather on mobile